createdAt,value
2019-03-13T00:01:41.911Z,17.57
2019-03-13T00:04:10.723Z,13.43
2019-03-13T00:06:39.555Z,14.00
2019-03-13T00:09:10.329Z,16.00
2019-03-13T00:11:39.261Z,10.20
2019-03-13T00:14:08.049Z,15.27
2019-03-13T00:16:36.844Z,14.13
2019-03-13T00:19:05.641Z,13.27
2019-03-13T00:21:34.449Z,12.23
2019-03-13T00:24:03.232Z,17.10
2019-03-13T00:26:32.037Z,10.67
2019-03-13T00:29:00.862Z,12.97
2019-03-13T00:31:29.634Z,17.37
2019-03-13T00:33:59.503Z,11.17
2019-03-13T00:36:28.271Z,13.13
2019-03-13T00:38:57.068Z,8.73
2019-03-13T00:41:25.855Z,14.03
2019-03-13T00:43:54.671Z,25.40
2019-03-13T00:46:23.480Z,14.80
2019-03-13T00:48:52.267Z,11.30
2019-03-13T00:51:21.073Z,10.60
2019-03-13T00:53:49.919Z,20.43
2019-03-13T00:56:18.693Z,17.23
2019-03-13T00:58:47.478Z,14.60
2019-03-13T01:01:23.542Z,16.17
2019-03-13T01:03:59.228Z,16.43
2019-03-13T01:06:31.188Z,13.83
2019-03-13T01:09:00.016Z,19.63
2019-03-13T01:11:28.808Z,23.83
2019-03-13T01:13:57.594Z,23.40
2019-03-13T01:16:26.512Z,18.27
2019-03-13T01:18:55.341Z,21.23
2019-03-13T01:21:24.144Z,17.70
2019-03-13T01:23:52.912Z,21.90
2019-03-13T01:26:21.793Z,16.23
2019-03-13T01:28:50.648Z,19.67
2019-03-13T01:31:26.622Z,20.97
2019-03-13T01:33:59.588Z,20.53
2019-03-13T01:36:28.399Z,21.10
2019-03-13T01:38:57.216Z,17.40
2019-03-13T01:41:26.001Z,18.53
2019-03-13T01:43:54.791Z,18.27
2019-03-13T01:46:23.575Z,28.17
2019-03-13T01:48:52.371Z,25.20
2019-03-13T01:51:21.174Z,17.43
2019-03-13T01:53:49.963Z,25.10
2019-03-13T01:56:18.744Z,13.33
2019-03-13T01:58:47.526Z,20.07
2019-03-13T02:01:16.331Z,16.53
2019-03-13T02:03:45.090Z,18.23
2019-03-13T02:06:13.916Z,18.60
2019-03-13T02:08:42.702Z,22.30
2019-03-13T02:11:11.494Z,14.33
2019-03-13T02:13:40.275Z,20.57
2019-03-13T02:16:09.052Z,16.00
2019-03-13T02:18:37.899Z,24.60
2019-03-13T02:21:06.693Z,18.20
2019-03-13T02:23:35.472Z,17.30
2019-03-13T02:26:04.308Z,21.67
2019-03-13T02:28:33.142Z,19.73
2019-03-13T02:31:01.945Z,18.87
2019-03-13T02:33:30.824Z,21.23
2019-03-13T02:36:00.329Z,25.07
2019-03-13T02:38:29.111Z,16.47
2019-03-13T02:40:57.920Z,20.47
2019-03-13T02:43:26.745Z,20.17
2019-03-13T02:45:55.514Z,22.67
2019-03-13T02:48:24.299Z,19.80
2019-03-13T02:50:53.077Z,22.60
2019-03-13T02:53:21.874Z,24.10
2019-03-13T02:55:50.647Z,26.00
2019-03-13T02:58:19.517Z,25.93
2019-03-13T03:00:56.499Z,19.73
2019-03-13T03:03:34.051Z,22.67
2019-03-13T03:06:02.880Z,19.00
2019-03-13T03:08:31.755Z,21.43
2019-03-13T03:11:00.555Z,25.43
2019-03-13T03:13:29.345Z,24.27
2019-03-13T03:15:58.230Z,21.10
2019-03-13T03:18:27.018Z,26.47
2019-03-13T03:20:55.812Z,37.73
2019-03-13T03:23:24.592Z,32.07
2019-03-13T03:25:53.388Z,28.77
2019-03-13T03:28:22.393Z,22.23
2019-03-13T03:30:51.292Z,24.83
2019-03-13T03:33:20.089Z,25.13
2019-03-13T03:35:48.890Z,21.93
2019-03-13T03:38:17.680Z,19.67
2019-03-13T03:40:47.007Z,32.23
2019-03-13T03:43:15.793Z,30.73
2019-03-13T03:45:45.282Z,26.70
2019-03-13T03:48:14.067Z,27.37
2019-03-13T03:50:42.936Z,37.67
2019-03-13T03:53:11.721Z,26.30
2019-03-13T03:55:40.502Z,31.67
2019-03-13T03:58:09.304Z,20.50
2019-03-13T04:00:38.077Z,32.57
2019-03-13T04:03:06.970Z,23.33
2019-03-13T04:05:35.787Z,30.17
2019-03-13T04:08:04.668Z,25.67
2019-03-13T04:10:33.458Z,33.57
2019-03-13T04:13:02.352Z,27.73
2019-03-13T04:15:31.431Z,29.40
2019-03-13T04:18:01.165Z,34.27
2019-03-13T04:20:29.958Z,27.97
2019-03-13T04:22:58.732Z,27.17
2019-03-13T04:25:33.067Z,36.50
2019-03-13T04:28:01.930Z,40.13
2019-03-13T04:30:30.815Z,25.23
2019-03-13T04:32:59.630Z,24.90
2019-03-13T04:35:28.457Z,25.37
2019-03-13T04:37:57.295Z,28.60
2019-03-13T04:40:26.114Z,26.47
2019-03-13T04:42:55.160Z,30.37
2019-03-13T04:45:24.019Z,34.43
2019-03-13T04:47:52.825Z,43.27
2019-03-13T04:50:21.602Z,29.30
2019-03-13T04:52:50.411Z,32.17
2019-03-13T04:55:19.232Z,25.73
2019-03-13T04:57:48.015Z,37.53
2019-03-13T05:00:16.924Z,27.07
2019-03-13T05:02:45.707Z,37.80
2019-03-13T05:05:25.964Z,35.67
2019-03-13T05:07:55.255Z,34.97
2019-03-13T05:10:24.037Z,28.40
2019-03-13T05:12:52.835Z,36.03
2019-03-13T05:15:21.606Z,39.60
2019-03-13T05:17:50.396Z,30.50
2019-03-13T05:20:19.192Z,27.87
2019-03-13T05:22:48.003Z,24.53
2019-03-13T05:25:19.209Z,35.93
2019-03-13T05:27:45.615Z,48.50
2019-03-13T05:30:14.487Z,29.67
2019-03-13T05:32:43.282Z,40.77
2019-03-13T05:35:12.079Z,50.60
2019-03-13T05:37:40.974Z,33.27
2019-03-13T05:40:09.860Z,43.43
2019-03-13T05:42:38.690Z,26.60
2019-03-13T05:45:08.492Z,20.60
2019-03-13T05:47:36.925Z,30.97
2019-03-13T05:50:05.772Z,28.83
2019-03-13T05:52:35.411Z,37.50
2019-03-13T05:55:04.274Z,37.20
2019-03-13T05:57:33.077Z,26.93
2019-03-13T06:00:01.881Z,37.60
2019-03-13T06:02:30.767Z,33.37
2019-03-13T06:04:59.543Z,38.03
2019-03-13T06:07:28.317Z,39.43
2019-03-13T06:09:57.138Z,35.27
2019-03-13T06:12:26.478Z,49.03
2019-03-13T06:14:55.292Z,30.10
2019-03-13T06:17:24.063Z,33.07
2019-03-13T06:19:52.971Z,37.97
2019-03-13T06:22:21.787Z,40.17
2019-03-13T06:24:50.562Z,30.20
2019-03-13T06:27:19.355Z,42.10
2019-03-13T06:29:48.138Z,29.53
2019-03-13T06:32:16.911Z,35.60
2019-03-13T06:34:45.773Z,32.57
2019-03-13T06:37:14.563Z,31.13
2019-03-13T06:39:43.342Z,35.27
2019-03-13T06:42:12.172Z,39.27
2019-03-13T06:44:41.088Z,44.23
2019-03-13T06:47:09.899Z,38.30
2019-03-13T06:49:38.682Z,48.17
2019-03-13T06:52:07.513Z,36.80
2019-03-13T06:54:36.299Z,34.03
2019-03-13T06:57:05.107Z,30.47
2019-03-13T06:59:38.112Z,34.50
2019-03-13T07:02:13.059Z,42.20
2019-03-13T07:05:04.264Z,48.83
2019-03-13T07:07:38.335Z,32.90
2019-03-13T07:10:11.916Z,39.63
2019-03-13T07:12:44.869Z,43.43
2019-03-13T07:15:24.406Z,27.00
2019-03-13T07:18:31.590Z,40.17
2019-03-13T07:22:04.490Z,38.07
2019-03-13T07:24:38.534Z,30.77
2019-03-13T07:28:11.355Z,44.23
2019-03-13T07:30:50.847Z,30.33
2019-03-13T07:33:26.663Z,38.60
2019-03-13T07:36:03.693Z,32.43
2019-03-13T07:38:40.813Z,39.13
2019-03-13T07:41:16.820Z,37.53
2019-03-13T07:43:53.866Z,30.70
2019-03-13T07:47:25.443Z,32.03
2019-03-13T07:50:37.858Z,36.33
2019-03-13T07:53:14.682Z,34.03
2019-03-13T07:55:56.753Z,39.27
2019-03-13T07:58:30.712Z,32.27
2019-03-13T08:01:04.899Z,37.27
2019-03-13T08:03:38.986Z,35.00
2019-03-13T08:06:13.112Z,41.40
2019-03-13T08:10:50.537Z,36.27
2019-03-13T08:13:25.568Z,25.17
2019-03-13T08:16:00.526Z,34.57
2019-03-13T08:18:36.515Z,35.43
2019-03-13T08:21:10.470Z,41.93
2019-03-13T08:23:43.440Z,36.43
2019-03-13T08:28:25.814Z,44.67
2019-03-13T08:31:05.831Z,29.73
2019-03-13T08:35:43.395Z,26.60
2019-03-13T08:38:16.348Z,30.90
2019-03-13T08:40:54.683Z,31.93
2019-03-13T08:43:46.870Z,35.77
2019-03-13T08:46:20.841Z,29.50
2019-03-13T08:49:01.907Z,33.93
2019-03-13T08:51:36.101Z,36.23
2019-03-13T08:54:13.002Z,37.47
2019-03-13T08:57:44.824Z,32.97
2019-03-13T09:00:19.838Z,32.53
2019-03-13T09:02:57.800Z,28.17
2019-03-13T09:05:38.864Z,29.83
2019-03-13T09:08:13.122Z,29.43
2019-03-13T09:10:46.072Z,36.40
2019-03-13T09:13:29.232Z,32.23
2019-03-13T09:16:07.208Z,32.97
2019-03-13T09:18:45.220Z,29.30
2019-03-13T09:21:20.069Z,32.63
2019-03-13T09:24:28.377Z,35.40
2019-03-13T09:27:05.501Z,27.73
2019-03-13T09:29:38.596Z,36.90
2019-03-13T09:33:16.215Z,37.13
2019-03-13T09:36:04.637Z,32.03
2019-03-13T09:38:42.673Z,33.37
2019-03-13T09:41:16.520Z,37.97
2019-03-13T09:43:59.609Z,29.93
2019-03-13T09:46:35.764Z,39.93
2019-03-13T09:49:09.683Z,34.03
2019-03-13T09:51:43.881Z,38.97
2019-03-13T09:54:18.588Z,38.50
2019-03-13T09:56:57.563Z,33.53
2019-03-13T09:59:42.776Z,44.30
2019-03-13T10:02:06.606Z,34.40
2019-03-13T10:04:44.604Z,35.97
2019-03-13T10:07:22.593Z,35.77
2019-03-13T10:09:56.536Z,27.93
2019-03-13T10:12:31.569Z,40.70
2019-03-13T10:15:05.491Z,31.70
2019-03-13T10:17:41.454Z,36.70
2019-03-13T10:20:14.414Z,32.53
2019-03-13T10:22:53.404Z,36.53
2019-03-13T10:25:27.239Z,37.53
2019-03-13T10:29:01.107Z,33.50
2019-03-13T10:31:41.124Z,37.20
2019-03-13T10:34:14.896Z,40.33
2019-03-13T10:36:50.590Z,35.27
2019-03-13T10:39:21.820Z,37.90
2019-03-13T10:41:59.802Z,50.93
2019-03-13T10:44:39.339Z,34.70
2019-03-13T10:47:12.313Z,35.47
2019-03-13T10:50:44.317Z,37.57
2019-03-13T10:53:18.539Z,37.13
2019-03-13T10:55:55.034Z,25.03
2019-03-13T10:58:26.457Z,27.57
2019-03-13T11:00:59.499Z,34.67
2019-03-13T11:03:41.601Z,28.93
2019-03-13T11:08:20.284Z,26.80
2019-03-13T11:11:05.348Z,27.20
2019-03-13T11:13:40.551Z,21.30
2019-03-13T11:17:13.558Z,30.90
2019-03-13T11:19:56.231Z,24.13
2019-03-13T11:22:29.954Z,21.97
2019-03-13T11:25:05.736Z,19.87
2019-03-13T11:27:45.638Z,23.40
2019-03-13T11:30:49.923Z,25.47
2019-03-13T11:33:56.104Z,29.93
2019-03-13T11:36:29.096Z,25.33
2019-03-13T11:39:05.051Z,31.87
2019-03-13T11:41:39.985Z,17.93
2019-03-13T11:44:45.566Z,20.20
2019-03-13T11:47:25.359Z,26.93
2019-03-13T11:49:58.270Z,27.37
2019-03-13T11:52:33.759Z,27.23
2019-03-13T11:55:07.193Z,23.70
2019-03-13T11:57:43.132Z,34.30
2019-03-13T12:00:17.653Z,24.80
2019-03-13T12:02:53.900Z,28.53
2019-03-13T12:05:33.907Z,28.97
2019-03-13T12:08:07.766Z,28.00
2019-03-13T12:10:41.997Z,28.33
2019-03-13T12:13:17.192Z,25.30
2019-03-13T12:15:50.163Z,32.70
2019-03-13T12:18:26.149Z,23.77
2019-03-13T12:21:05.735Z,34.37
2019-03-13T12:23:39.716Z,33.43
2019-03-13T12:26:16.772Z,26.73
2019-03-13T12:29:02.918Z,25.87
2019-03-13T12:32:36.789Z,30.83
2019-03-13T12:35:09.827Z,31.10
2019-03-13T12:37:43.801Z,31.43
2019-03-13T12:40:18.863Z,46.20
2019-03-13T12:43:52.066Z,51.97
2019-03-13T12:46:31.584Z,36.40
2019-03-13T12:49:04.665Z,34.40
2019-03-13T12:52:11.021Z,43.23
2019-03-13T12:54:45.259Z,35.37
2019-03-13T12:57:19.211Z,23.07
2019-03-13T12:59:54.019Z,13.00
2019-03-13T13:02:31.015Z,8.57
2019-03-13T13:05:05.041Z,9.93
2019-03-13T13:07:45.899Z,9.43
2019-03-13T13:10:25.571Z,10.27
2019-03-13T13:12:59.597Z,16.07
2019-03-13T13:15:33.355Z,19.70
2019-03-13T13:19:04.901Z,14.73
2019-03-13T13:21:33.666Z,28.07
2019-03-13T13:24:02.451Z,27.40
2019-03-13T13:26:31.222Z,22.90
2019-03-13T13:28:59.998Z,24.47
2019-03-13T13:31:28.798Z,19.57
2019-03-13T13:33:57.618Z,26.17
2019-03-13T13:36:27.535Z,24.27
2019-03-13T13:38:56.290Z,20.33
2019-03-13T13:41:25.097Z,16.60
2019-03-13T13:43:54.443Z,24.97
2019-03-13T13:46:28.803Z,15.43
2019-03-13T13:48:57.607Z,21.70
2019-03-13T13:51:26.369Z,27.37
2019-03-13T13:53:55.897Z,20.13
2019-03-13T13:56:24.020Z,17.53
2019-03-13T13:58:52.862Z,22.67
2019-03-13T14:01:21.598Z,24.07
2019-03-13T14:03:50.535Z,28.20
2019-03-13T14:06:19.398Z,26.47
2019-03-13T14:08:48.476Z,27.60
2019-03-13T14:11:17.262Z,22.87
2019-03-13T14:13:46.173Z,26.13
2019-03-13T14:16:15.250Z,26.63
2019-03-13T14:18:46.073Z,29.77
2019-03-13T14:21:14.849Z,24.53
2019-03-13T14:23:44.439Z,31.90
2019-03-13T14:26:13.245Z,23.10
2019-03-13T14:28:42.071Z,24.30
2019-03-13T14:31:10.879Z,32.37
2019-03-13T14:33:39.678Z,19.00
2019-03-13T14:36:08.445Z,26.07
2019-03-13T14:38:37.231Z,22.43
2019-03-13T14:41:06.019Z,21.30
2019-03-13T14:43:34.799Z,19.03
2019-03-13T14:46:03.599Z,16.23
2019-03-13T14:48:32.392Z,19.27
2019-03-13T14:51:01.648Z,23.00
2019-03-13T14:53:30.449Z,16.13
2019-03-13T14:55:59.256Z,17.63
2019-03-13T14:58:28.776Z,21.00
2019-03-13T15:00:58.061Z,28.17
2019-03-13T15:03:26.844Z,25.17
2019-03-13T15:05:55.723Z,21.10
2019-03-13T15:08:25.756Z,26.60
2019-03-13T15:10:55.233Z,32.37
2019-03-13T15:13:24.072Z,13.53
2019-03-13T15:15:52.925Z,17.70
2019-03-13T15:18:22.146Z,22.13
2019-03-13T15:20:50.909Z,18.33
2019-03-13T15:23:19.701Z,24.03
2019-03-13T15:25:49.015Z,20.27
2019-03-13T15:28:17.807Z,25.03
2019-03-13T15:30:46.680Z,17.23
2019-03-13T15:33:16.104Z,23.27
2019-03-13T15:35:46.149Z,28.93
2019-03-13T15:38:15.010Z,25.20
2019-03-13T15:40:43.947Z,25.50
2019-03-13T15:43:13.597Z,29.90
2019-03-13T15:45:42.421Z,26.27
2019-03-13T15:48:11.239Z,26.40
2019-03-13T15:50:40.116Z,24.07
2019-03-13T15:53:08.995Z,32.93
2019-03-13T15:55:38.067Z,29.37
2019-03-13T15:58:06.854Z,30.50
2019-03-13T16:00:35.645Z,27.83
2019-03-13T16:03:04.540Z,34.07
2019-03-13T16:05:33.323Z,25.03
2019-03-13T16:08:02.143Z,33.77
2019-03-13T16:10:30.931Z,32.07
2019-03-13T16:13:01.673Z,27.67
2019-03-13T16:15:30.976Z,25.20
2019-03-13T16:17:59.802Z,22.87
2019-03-13T16:20:28.662Z,38.43
2019-03-13T16:22:58.659Z,26.40
2019-03-13T16:25:29.282Z,24.73
2019-03-13T16:27:58.810Z,30.60
2019-03-13T16:30:28.811Z,24.60
2019-03-13T16:32:57.616Z,28.00
2019-03-13T16:35:26.694Z,26.53
2019-03-13T16:37:55.264Z,33.37
2019-03-13T16:40:25.386Z,30.83
2019-03-13T16:42:54.246Z,29.47
2019-03-13T16:45:23.094Z,28.30
2019-03-13T16:47:52.646Z,29.97
2019-03-13T16:50:21.563Z,34.10
2019-03-13T16:52:50.861Z,15.63
2019-03-13T16:55:19.655Z,22.93
2019-03-13T16:57:49.139Z,27.23
2019-03-13T17:00:21.503Z,23.30
2019-03-13T17:02:54.160Z,25.47
2019-03-13T17:05:23.120Z,24.83
2019-03-13T17:07:51.985Z,30.00
2019-03-13T17:10:20.814Z,25.00
2019-03-13T17:12:49.608Z,24.00
2019-03-13T17:15:20.129Z,27.57
2019-03-13T17:17:48.959Z,31.20
2019-03-13T17:20:21.707Z,25.30
2019-03-13T17:22:50.563Z,26.00
2019-03-13T17:25:19.478Z,23.63
2019-03-13T17:27:48.431Z,25.50
2019-03-13T17:30:19.658Z,29.13
2019-03-13T17:32:51.143Z,28.17
2019-03-13T17:35:20.214Z,21.47
2019-03-13T17:37:49.035Z,27.80
2019-03-13T17:40:19.915Z,20.20
2019-03-13T17:42:48.859Z,24.40
2019-03-13T17:45:19.509Z,26.13
2019-03-13T17:47:48.336Z,22.07
2019-03-13T17:50:19.259Z,29.10
2019-03-13T17:52:48.059Z,31.50
2019-03-13T17:55:16.908Z,22.67
2019-03-13T17:57:45.713Z,29.53
2019-03-13T18:00:19.908Z,19.07
2019-03-13T18:02:48.774Z,26.17
2019-03-13T18:05:21.657Z,21.20
2019-03-13T18:07:50.447Z,30.10
2019-03-13T18:10:19.320Z,23.07
2019-03-13T18:12:48.223Z,20.57
2019-03-13T18:15:17.609Z,31.73
2019-03-13T18:17:46.432Z,27.63
2019-03-13T18:20:16.378Z,30.00
2019-03-13T18:22:45.339Z,27.63
2019-03-13T18:25:14.349Z,20.80
2019-03-13T18:27:43.201Z,31.50
2019-03-13T18:30:15.355Z,28.23
2019-03-13T18:32:44.271Z,35.83
2019-03-13T18:35:13.441Z,20.20
2019-03-13T18:37:42.318Z,34.93
2019-03-13T18:40:11.477Z,19.70
2019-03-13T18:42:40.346Z,28.87
2019-03-13T18:45:13.079Z,27.03
2019-03-13T18:47:41.963Z,22.50
2019-03-13T18:50:11.504Z,33.57
2019-03-13T18:52:40.376Z,32.30
2019-03-13T18:55:10.153Z,32.07
2019-03-13T18:57:38.929Z,22.47
2019-03-13T19:00:11.689Z,26.00
2019-03-13T19:02:40.491Z,31.00
2019-03-13T19:05:11.415Z,31.30
2019-03-13T19:07:40.222Z,19.87
2019-03-13T19:10:10.044Z,22.30
2019-03-13T19:12:38.839Z,24.70
2019-03-13T19:15:09.375Z,26.27
2019-03-13T19:17:38.150Z,32.67
2019-03-13T19:20:08.047Z,27.83
2019-03-13T19:22:36.831Z,22.23
2019-03-13T19:25:05.847Z,22.80
2019-03-13T19:27:34.808Z,29.93
2019-03-13T19:30:03.878Z,40.03
2019-03-13T19:32:33.061Z,46.70
2019-03-13T19:35:01.884Z,28.90
2019-03-13T19:37:30.694Z,30.37
2019-03-13T19:39:59.495Z,25.73
2019-03-13T19:42:28.293Z,29.13
2019-03-13T19:44:57.075Z,33.43
2019-03-13T19:47:25.877Z,27.03
2019-03-13T19:49:54.656Z,37.50
2019-03-13T19:52:23.512Z,28.13
2019-03-13T19:54:52.294Z,34.50
2019-03-13T19:57:21.085Z,33.00
2019-03-13T19:59:50.243Z,28.30
2019-03-13T20:02:19.028Z,28.23
2019-03-13T20:04:47.985Z,36.07
2019-03-13T20:07:16.647Z,40.63
2019-03-13T20:09:45.444Z,30.03
2019-03-13T20:12:14.408Z,31.27
2019-03-13T20:14:43.176Z,34.10
2019-03-13T20:17:11.981Z,21.43
2019-03-13T20:19:40.772Z,35.67
2019-03-13T20:22:09.684Z,24.47
2019-03-13T20:24:38.893Z,37.33
2019-03-13T20:27:07.495Z,28.23
2019-03-13T20:29:36.519Z,26.87
2019-03-13T20:32:05.378Z,30.90
2019-03-13T20:34:34.209Z,40.23
2019-03-13T20:37:03.000Z,46.47
2019-03-13T20:39:31.808Z,52.10
2019-03-13T20:42:01.062Z,30.20
2019-03-13T20:44:29.894Z,41.97
2019-03-13T20:46:58.690Z,29.70
2019-03-13T20:49:27.471Z,36.27
2019-03-13T20:51:56.269Z,45.13
2019-03-13T20:54:25.073Z,28.43
2019-03-13T20:56:53.878Z,39.50
2019-03-13T20:59:23.300Z,29.90
2019-03-13T21:01:52.155Z,37.27
2019-03-13T21:04:21.025Z,30.17
2019-03-13T21:06:49.783Z,36.83
2019-03-13T21:09:18.573Z,41.27
2019-03-13T21:11:48.073Z,34.10
2019-03-13T21:14:16.804Z,44.57
2019-03-13T21:16:45.599Z,23.43
2019-03-13T21:19:14.418Z,27.40
2019-03-13T21:21:43.230Z,47.23
2019-03-13T21:24:12.409Z,34.77
2019-03-13T21:26:41.176Z,30.93
2019-03-13T21:29:09.934Z,36.73
2019-03-13T21:31:38.739Z,15.97
2019-03-13T21:34:07.543Z,33.23
2019-03-13T21:36:36.373Z,33.33
2019-03-13T21:39:06.321Z,31.63
2019-03-13T21:41:35.629Z,37.67
2019-03-13T21:44:06.898Z,23.57
2019-03-13T21:46:35.759Z,34.20
2019-03-13T21:49:07.875Z,27.63
2019-03-13T21:51:34.453Z,36.63
2019-03-13T21:54:04.010Z,27.03
2019-03-13T21:56:34.056Z,29.93
2019-03-13T21:59:02.866Z,26.83
2019-03-13T22:01:31.637Z,40.57
2019-03-13T22:04:00.510Z,38.13
2019-03-13T22:06:29.637Z,20.10
2019-03-13T22:08:58.232Z,33.50
2019-03-13T22:11:27.007Z,27.37
2019-03-13T22:13:55.785Z,30.17
2019-03-13T22:16:25.123Z,25.63
2019-03-13T22:18:53.911Z,36.27
2019-03-13T22:21:22.722Z,31.40
2019-03-13T22:23:51.519Z,28.60
2019-03-13T22:26:20.330Z,30.23
2019-03-13T22:28:49.165Z,28.73
2019-03-13T22:31:17.961Z,27.30
2019-03-13T22:33:46.782Z,32.00
2019-03-13T22:36:15.743Z,26.47
2019-03-13T22:38:44.722Z,34.10
2019-03-13T22:41:21.174Z,31.70
2019-03-13T22:43:50.776Z,36.40
2019-03-13T22:46:19.698Z,27.90
2019-03-13T22:48:57.619Z,25.60
2019-03-13T22:51:17.323Z,28.17
2019-03-13T22:53:46.122Z,30.03
2019-03-13T22:56:15.025Z,24.00
2019-03-13T22:58:44.850Z,35.03
2019-03-13T23:01:16.530Z,23.23
2019-03-13T23:03:46.566Z,32.90
2019-03-13T23:06:15.323Z,34.07
2019-03-13T23:08:44.167Z,30.67
2019-03-13T23:11:13.000Z,20.20
2019-03-13T23:13:42.151Z,25.60
2019-03-13T23:16:10.895Z,38.43
2019-03-13T23:18:39.724Z,36.80
2019-03-13T23:21:08.624Z,27.57
2019-03-13T23:23:37.512Z,37.83
2019-03-13T23:26:06.305Z,38.77
2019-03-13T23:28:35.107Z,45.50
2019-03-13T23:31:03.955Z,38.80
2019-03-13T23:33:32.737Z,37.40
2019-03-13T23:36:02.432Z,33.87
2019-03-13T23:38:31.206Z,44.47
2019-03-13T23:40:59.984Z,45.73
2019-03-13T23:43:28.858Z,40.73
2019-03-13T23:45:57.623Z,48.60
2019-03-13T23:48:26.443Z,53.50
2019-03-13T23:50:55.222Z,44.70
2019-03-13T23:53:24.024Z,46.07
2019-03-13T23:55:52.848Z,42.83
2019-03-13T23:58:21.631Z,43.10
